Time;durP1;ratioP1;P1;durP2;ratioP2;P2;SDS_P1;SDS_P2;PMS_P1;PMS_P2;Temp;Humidity;BMP_temperature;BMP_pressure;BME280_temperature;BME280_humidity;BME280_pressure;Samples;Min_cycle;Max_cycle;Signal;HPM_P1;HPM_P2
2022/12/22 03:25:51;;;;;;;;;;;;;;;9.95;70.15;101022.09;5023388;28;19917;-78
2022/12/22 03:28:35;;;;;;;;;;;;;;;10.10;69.54;101013.63;5037402;28;19917;-78
2022/12/22 03:31:20;;;;;;;;;;;;;;;10.00;69.81;101007.59;5035642;28;19921;-78
2022/12/22 03:34:04;;;;;;;;;;;;;;;9.96;69.74;101001.13;5029964;28;20305;-78
2022/12/22 03:36:49;;;;;;;;;;;;;;;9.84;70.26;101007.09;5035628;28;19917;-78
2022/12/22 03:39:33;;;;;;;;;;;;;;;9.93;69.89;101013.44;5030054;28;19917;-78
2022/12/22 03:48:24;;;;;;;;;;;;;;;9.87;70.14;100982.03;5025078;28;19921;-78
2022/12/22 03:51:09;;;;;;;;;;;;;;;9.84;70.21;100988.09;5045271;28;19917;-79
2022/12/22 03:53:53;;;;;;;;;;;;;;;9.97;69.70;100983.72;5043976;28;19921;-78
2022/12/22 03:56:38;;;;;;;;;;;;;;;9.99;69.70;100982.34;5034569;28;19917;-78
2022/12/22 03:59:23;;;;;;;;;;;;;;;9.88;70.14;100989.09;5036238;28;19917;-79
2022/12/22 04:02:07;;;;;;;;;;;;;;;9.87;70.41;100988.28;5036870;28;19917;-77
2022/12/22 04:04:51;;;;;;;;;;;;;;;9.64;71.29;100988.50;5036876;28;19917;-78
2022/12/22 04:07:36;;;;;;;;;;;;;;;9.55;71.67;100991.09;5042408;28;19916;-77
2022/12/22 04:13:24;;;;;;;;;;;;;;;9.75;70.54;100987.97;5036525;28;19918;-78
2022/12/22 04:16:08;;;;;;;;;;;;;;;9.82;70.58;100993.00;5039043;28;19921;-78
2022/12/22 04:18:53;;;;;;;;;;;;;;;9.74;70.89;100993.72;5043039;28;19917;-78
2022/12/22 04:21:37;;;;;;;;;;;;;;;9.67;70.98;100977.84;5023897;28;20298;-76
2022/12/22 04:24:21;;;;;;;;;;;;;;;9.56;70.88;100979.13;5023840;28;19917;-78
2022/12/22 04:27:06;;;;;;;;;;;;;;;9.50;70.67;100982.28;5036279;28;19917;-78
2022/12/22 04:29:51;;;;;;;;;;;;;;;9.47;70.33;100978.25;5025694;28;19917;-78
2022/12/22 04:32:35;;;;;;;;;;;;;;;9.44;70.63;100979.66;5036708;28;19917;-78
2022/12/22 04:35:19;;;;;;;;;;;;;;;9.70;68.89;100984.59;5022565;28;19921;-77
2022/12/22 04:38:04;;;;;;;;;;;;;;;9.30;69.98;100978.81;5043259;28;19925;-77
2022/12/22 04:40:48;;;;;;;;;;;;;;;9.39;69.23;100971.63;5025541;28;19917;-77
2022/12/22 04:43:33;;;;;;;;;;;;;;;9.19;69.71;100980.13;5034784;28;19917;-77
2022/12/22 04:46:17;;;;;;;;;;;;;;;9.51;69.07;100979.25;5015889;28;19917;-78
2022/12/22 04:49:02;;;;;;;;;;;;;;;9.68;68.18;100984.06;5037450;28;20394;-77
2022/12/22 04:51:46;;;;;;;;;;;;;;;9.21;69.71;100988.75;5020865;28;19917;-77
2022/12/22 04:54:31;;;;;;;;;;;;;;;9.25;69.11;100988.97;5042100;28;19921;-77
2022/12/22 04:57:15;;;;;;;;;;;;;;;8.75;71.15;100986.03;5025924;28;20389;-77
2022/12/22 05:00:00;;;;;;;;;;;;;;;8.70;71.53;100986.13;5046928;28;19917;-77
2022/12/22 05:02:44;;;;;;;;;;;;;;;9.04;70.77;100996.66;5034226;28;19917;-77
2022/12/22 05:05:29;;;;;;;;;;;;;;;9.52;68.66;101001.75;5021155;28;19917;-78
2022/12/22 05:08:13;;;;;;;;;;;;;;;9.67;67.56;100996.03;5022060;28;20397;-77
2022/12/22 05:10:58;;;;;;;;;;;;;;;9.69;67.71;100991.94;5033768;28;20306;-77
2022/12/22 05:13:42;;;;;;;;;;;;;;;9.61;68.06;100983.66;5033171;28;19925;-77
2022/12/22 05:16:26;;;;;;;;;;;;;;;9.47;69.16;100980.16;5041846;28;19921;-77
2022/12/22 05:19:11;;;;;;;;;;;;;;;9.51;68.89;100978.44;5035471;28;20324;-77
2022/12/22 05:21:55;;;;;;;;;;;;;;;9.48;69.39;100984.47;5031258;28;19940;-78
2022/12/22 05:24:40;;;;;;;;;;;;;;;9.63;68.38;100998.56;5027515;28;19921;-77
2022/12/22 05:27:24;;;;;;;;;;;;;;;9.75;67.37;101004.28;5031820;28;20293;-77
2022/12/22 05:30:09;;;;;;;;;;;;;;;9.73;67.40;101009.22;5031721;28;19921;-78
2022/12/22 05:32:54;;;;;;;;;;;;;;;9.76;67.69;101007.78;5030593;28;20605;-77
2022/12/22 05:35:38;;;;;;;;;;;;;;;9.25;69.59;101006.06;5034719;28;19921;-77
2022/12/22 05:38:22;;;;;;;;;;;;;;;9.22;70.16;101003.94;5019909;28;19918;-78
2022/12/22 05:41:07;;;;;;;;;;;;;;;8.89;71.61;101005.84;5034589;28;20301;-77
2022/12/22 05:43:51;;;;;;;;;;;;;;;9.25;70.44;101014.19;5026439;28;19921;-77
2022/12/22 05:46:36;;;;;;;;;;;;;;;9.53;69.07;101015.03;5027996;28;19917;-77
2022/12/22 05:49:20;;;;;;;;;;;;;;;9.57;68.42;100998.94;5019960;28;20297;-77
2022/12/22 05:52:04;;;;;;;;;;;;;;;9.58;68.70;100995.13;5027598;28;19921;-77
2022/12/22 05:54:49;;;;;;;;;;;;;;;9.23;69.71;100989.28;5030204;28;19922;-77
2022/12/22 05:57:33;;;;;;;;;;;;;;;9.14;70.59;100987.56;5021231;28;20297;-77
2022/12/22 06:00:18;;;;;;;;;;;;;;;9.29;69.90;100984.56;5024583;28;20398;-76
2022/12/22 06:03:02;;;;;;;;;;;;;;;9.23;69.78;100978.44;5043990;28;19917;-77
2022/12/22 06:05:48;;;;;;;;;;;;;;;9.09;70.96;100969.47;5018593;28;19920;-77
2022/12/22 06:08:33;;;;;;;;;;;;;;;9.28;70.12;100967.47;5039361;28;20405;-77
2022/12/22 06:11:18;;;;;;;;;;;;;;;9.27;70.27;100978.63;5031558;28;19917;-77
2022/12/22 06:14:02;;;;;;;;;;;;;;;9.29;70.49;100981.84;5034659;28;19917;-78
2022/12/22 06:16:47;;;;;;;;;;;;;;;9.07;71.26;100985.22;5017627;28;19921;-76
2022/12/22 06:19:31;;;;;;;;;;;;;;;9.13;71.32;100989.47;5023430;28;19917;-77
2022/12/22 06:22:16;;;;;;;;;;;;;;;9.18;71.26;100989.38;5032845;28;19920;-77
2022/12/22 06:25:00;;;;;;;;;;;;;;;9.38;70.21;100997.13;5034112;28;19917;-77
2022/12/22 06:27:45;;;;;;;;;;;;;;;9.53;69.53;100989.81;5012182;28;19921;-77
2022/12/22 06:30:30;;;;;;;;;;;;;;;9.56;68.81;100990.00;5031353;28;19917;-77
2022/12/22 06:33:14;;;;;;;;;;;;;;;9.42;68.94;100979.16;5023533;28;19921;-77
2022/12/22 06:36:02;;;;;;;;;;;;;;;9.42;69.57;100964.75;5015028;28;19929;-78
2022/12/22 06:38:48;;;;;;;;;;;;;;;9.30;69.41;100967.16;5033927;28;19917;-77
2022/12/22 06:44:36;;;;;;;;;;;;;;;9.38;69.17;100970.00;5032394;28;21390;-78
2022/12/22 06:47:21;;;;;;;;;;;;;;;9.39;69.33;100968.09;5026586;28;19921;-78
2022/12/22 06:50:06;;;;;;;;;;;;;;;9.36;69.43;100963.25;5033482;28;19917;-77
2022/12/22 06:52:50;;;;;;;;;;;;;;;9.29;70.11;100977.22;5021114;28;19980;-77
2022/12/22 06:55:35;;;;;;;;;;;;;;;9.20;70.96;100984.44;5033693;28;19924;-78
2022/12/22 06:58:20;;;;;;;;;;;;;;;9.12;71.54;100985.13;5022872;28;19917;-77
2022/12/22 07:01:04;;;;;;;;;;;;;;;9.16;71.97;100988.84;5030999;28;19922;-78
2022/12/22 07:03:49;;;;;;;;;;;;;;;9.14;71.70;100971.28;5028666;28;19917;-78
2022/12/22 07:06:34;;;;;;;;;;;;;;;8.52;73.36;100984.25;5041444;28;20453;-78
2022/12/22 07:09:18;;;;;;;;;;;;;;;8.45;74.06;100979.19;5019852;28;19925;-77
2022/12/22 07:12:02;;;;;;;;;;;;;;;8.61;74.32;100982.47;5029977;28;20622;-78
2022/12/22 07:14:46;;;;;;;;;;;;;;;8.90;73.00;100987.69;5035300;28;19917;-78
2022/12/22 07:17:31;;;;;;;;;;;;;;;9.02;72.74;100977.19;5033079;28;19917;-77
2022/12/22 07:20:15;;;;;;;;;;;;;;;9.29;71.29;100987.28;5021316;28;19917;-79
2022/12/22 07:23:00;;;;;;;;;;;;;;;9.42;70.52;100981.84;5029715;28;19916;-78
2022/12/22 07:25:44;;;;;;;;;;;;;;;9.36;70.50;101015.63;5023150;28;19921;-78
2022/12/22 07:28:30;;;;;;;;;;;;;;;8.88;73.10;101017.84;5033802;28;20301;-78
2022/12/22 07:31:16;;;;;;;;;;;;;;;8.98;72.58;101016.84;5039294;28;19917;-78
2022/12/22 07:34:00;;;;;;;;;;;;;;;9.01;72.81;101019.78;5029068;28;19917;-78
2022/12/22 07:36:45;;;;;;;;;;;;;;;8.90;72.78;101017.50;5035416;28;19925;-77
2022/12/22 07:39:29;;;;;;;;;;;;;;;9.21;72.85;101024.03;5032959;28;19917;-78
2022/12/22 07:45:18;;;;;;;;;;;;;;;9.25;71.91;101030.47;5022769;28;19917;-76
2022/12/22 07:50:23;;;;;;;;;;;;;;;9.27;71.92;101036.41;5029469;28;20302;-76
2022/12/22 07:51:10;;;;;;;;;;;;;;;9.15;72.13;101033.38;5030181;28;19917;-77
2022/12/22 07:53:54;;;;;;;;;;;;;;;9.04;72.29;101033.84;5034241;28;19920;-77
2022/12/22 07:56:39;;;;;;;;;;;;;;;9.27;72.36;101036.41;5036043;28;19922;-77
2022/12/22 07:59:24;;;;;;;;;;;;;;;9.17;71.82;101043.94;5035643;28;19917;-76
2022/12/22 08:02:09;;;;;;;;;;;;;;;9.00;73.72;101036.34;5034323;28;20301;-76
2022/12/22 08:04:54;;;;;;;;;;;;;;;9.14;73.79;101039.91;5026503;28;20314;-78
2022/12/22 08:07:38;;;;;;;;;;;;;;;9.35;72.27;101043.06;5051573;28;19916;-77
2022/12/22 08:10:22;;;;;;;;;;;;;;;9.41;71.17;101031.00;5038990;28;20297;-78
2022/12/22 08:13:07;;;;;;;;;;;;;;;9.49;70.92;101024.91;5035576;28;19917;-79
2022/12/22 08:15:51;;;;;;;;;;;;;;;9.58;70.45;101028.53;5015427;28;19922;-77
2022/12/22 08:18:36;;;;;;;;;;;;;;;9.60;70.33;101036.38;5031799;28;19917;-79
2022/12/22 08:21:21;;;;;;;;;;;;;;;9.56;70.31;101035.34;5032470;28;20402;-81
2022/12/22 08:24:05;;;;;;;;;;;;;;;9.49;70.50;101029.53;5028888;28;19917;-79
2022/12/22 08:26:54;;;;;;;;;;;;;;;9.57;70.04;101031.53;5029579;28;19917;-85
2022/12/22 08:29:41;;;;;;;;;;;;;;;9.40;70.75;101027.47;5044620;28;19916;-83
2022/12/22 08:32:26;;;;;;;;;;;;;;;9.44;69.87;101047.53;5034965;28;19918;-81
2022/12/22 08:35:14;;;;;;;;;;;;;;;9.44;70.50;101047.53;5019614;28;19921;-80
2022/12/22 08:37:59;;;;;;;;;;;;;;;9.35;70.39;101043.84;5011508;28;19925;-80
2022/12/22 08:40:44;;;;;;;;;;;;;;;9.62;70.31;101040.38;5026125;28;19917;-81
2022/12/22 08:43:29;;;;;;;;;;;;;;;9.58;69.97;101035.84;5036470;28;20377;-83
2022/12/22 08:46:14;;;;;;;;;;;;;;;9.78;68.44;101028.13;5020879;28;20389;-80
2022/12/22 08:48:58;;;;;;;;;;;;;;;9.63;69.21;101031.13;5035858;28;19917;-80
2022/12/22 08:51:43;;;;;;;;;;;;;;;9.70;68.92;101019.88;5025823;28;19917;-80
2022/12/22 08:54:27;;;;;;;;;;;;;;;9.83;68.37;101029.94;5023237;28;19917;-80
2022/12/22 08:57:12;;;;;;;;;;;;;;;9.73;68.84;101022.00;5034060;28;19922;-80
2022/12/22 08:59:56;;;;;;;;;;;;;;;9.64;69.81;101026.50;5033845;28;19917;-80
2022/12/22 09:02:41;;;;;;;;;;;;;;;9.54;70.22;101019.38;5024816;28;19917;-80
2022/12/22 09:05:25;;;;;;;;;;;;;;;9.48;70.43;101017.84;5034486;28;19917;-80
2022/12/22 09:08:10;;;;;;;;;;;;;;;9.60;70.64;101014.66;5028104;28;19925;-81
2022/12/22 09:10:54;;;;;;;;;;;;;;;9.57;70.69;100998.94;5033639;28;20406;-80
2022/12/22 09:13:38;;;;;;;;;;;;;;;9.59;71.07;101008.41;5033700;28;19917;-80
2022/12/22 09:16:23;;;;;;;;;;;;;;;9.55;71.46;101009.31;5025505;28;19921;-80
2022/12/22 09:19:07;;;;;;;;;;;;;;;9.56;71.54;101009.00;5025174;28;19921;-80
2022/12/22 09:21:53;;;;;;;;;;;;;;;9.50;71.80;101023.00;5025338;28;19916;-80
2022/12/22 09:24:37;;;;;;;;;;;;;;;9.65;71.52;101018.03;5023028;28;19917;-80
2022/12/22 09:27:22;;;;;;;;;;;;;;;9.70;71.65;101017.16;5033415;28;19917;-81
2022/12/22 09:30:06;;;;;;;;;;;;;;;9.76;71.06;101016.75;5038897;28;19917;-80
2022/12/22 09:32:53;;;;;;;;;;;;;;;9.70;71.95;101020.66;5034868;28;19917;-82
2022/12/22 09:35:39;;;;;;;;;;;;;;;9.71;72.12;101005.19;5035198;28;19921;-81
2022/12/22 09:38:27;;;;;;;;;;;;;;;9.82;71.72;101009.31;5034935;28;19917;-82
2022/12/22 09:41:18;;;;;;;;;;;;;;;9.87;71.43;101001.06;5035065;28;19917;-80
2022/12/22 09:44:16;;;;;;;;;;;;;;;9.72;72.03;100993.22;5023228;28;19917;-82
2022/12/22 09:47:03;;;;;;;;;;;;;;;9.75;72.83;100996.13;5037001;28;19920;-80
2022/12/22 09:49:47;;;;;;;;;;;;;;;9.69;72.70;100999.25;5028701;28;20389;-80
2022/12/22 09:52:32;;;;;;;;;;;;;;;9.62;72.92;100990.72;5019501;28;19917;-80
2022/12/22 09:55:24;;;;;;;;;;;;;;;9.70;72.41;100993.50;5029255;28;20130;-80
2022/12/22 09:58:23;;;;;;;;;;;;;;;9.87;72.03;100985.56;5041782;28;19917;-80
2022/12/22 10:01:11;;;;;;;;;;;;;;;9.90;71.33;100989.59;5033097;28;19917;-80
2022/12/22 10:03:55;;;;;;;;;;;;;;;9.96;71.53;100991.06;5019625;28;19917;-80
2022/12/22 10:06:53;;;;;;;;;;;;;;;9.79;71.79;100990.91;5032212;28;19917;-80
2022/12/22 10:09:38;;;;;;;;;;;;;;;9.95;71.72;100991.41;5042193;28;20389;-80
2022/12/22 10:12:23;;;;;;;;;;;;;;;9.94;71.31;100990.59;5024759;28;19917;-82
2022/12/22 10:15:11;;;;;;;;;;;;;;;10.01;71.11;100988.25;5021081;28;20398;-81
2022/12/22 10:18:07;;;;;;;;;;;;;;;9.99;71.19;100989.69;5014386;28;19917;-81
2022/12/22 10:21:04;;;;;;;;;;;;;;;9.92;71.52;100984.66;5032912;28;19917;-81
2022/12/22 10:23:48;;;;;;;;;;;;;;;9.69;72.44;100969.41;5032956;28;19920;-81
2022/12/22 10:26:33;;;;;;;;;;;;;;;9.60;72.54;100960.34;5022794;28;19917;-80
2022/12/22 10:29:17;;;;;;;;;;;;;;;9.51;73.34;100962.16;5019090;28;19917;-80
2022/12/22 10:32:13;;;;;;;;;;;;;;;9.10;75.02;100962.91;5005182;28;19918;-81
2022/12/22 10:35:04;;;;;;;;;;;;;;;9.47;74.34;100958.44;5015305;28;20304;-80
2022/12/22 10:37:48;;;;;;;;;;;;;;;9.81;72.24;100964.25;5020735;28;19921;-80
2022/12/22 10:40:40;;;;;;;;;;;;;;;9.63;72.75;100968.69;5030539;28;20377;-80
2022/12/22 10:43:26;;;;;;;;;;;;;;;9.28;73.91;100959.34;5031352;28;20385;-80
2022/12/22 10:46:11;;;;;;;;;;;;;;;9.48;73.46;100962.75;5017675;28;20457;-81
2022/12/22 10:49:07;;;;;;;;;;;;;;;9.50;73.51;100957.84;5018186;28;19921;-80
2022/12/22 10:51:54;;;;;;;;;;;;;;;9.19;74.95;100958.44;5032491;28;19916;-80
2022/12/22 10:54:42;;;;;;;;;;;;;;;9.59;74.03;100961.47;5027443;28;19917;-80
2022/12/22 10:57:28;;;;;;;;;;;;;;;9.65;73.35;100954.81;5028487;28;19921;-80
2022/12/22 11:00:24;;;;;;;;;;;;;;;9.83;73.15;100954.69;5032819;28;19917;-80
2022/12/22 11:03:10;;;;;;;;;;;;;;;9.82;72.66;100958.50;5032656;28;19917;-81
2022/12/22 11:05:56;;;;;;;;;;;;;;;9.67;72.97;100956.13;5029426;28;19916;-79
2022/12/22 11:08:42;;;;;;;;;;;;;;;10.11;71.77;100955.44;5022255;28;20413;-82
2022/12/22 11:11:31;;;;;;;;;;;;;;;10.28;70.98;100960.25;5012055;28;19917;-80
2022/12/22 11:14:35;;;;;;;;;;;;;;;10.37;70.77;100963.03;5036030;28;19917;-79
2022/12/22 11:17:29;;;;;;;;;;;;;;;10.42;70.44;100962.91;5016628;28;19921;-79
2022/12/22 11:20:19;;;;;;;;;;;;;;;10.27;70.87;100969.50;5033788;28;20497;-79
2022/12/22 11:23:13;;;;;;;;;;;;;;;10.28;71.05;100965.69;5036170;28;20393;-80
2022/12/22 11:26:10;;;;;;;;;;;;;;;10.24;71.36;100962.78;5018756;28;19917;-81
2022/12/22 11:29:00;;;;;;;;;;;;;;;10.20;71.42;100963.72;5027476;28;19921;-82
2022/12/22 11:32:11;;;;;;;;;;;;;;;10.20;71.40;100972.66;5024901;28;19920;-81
2022/12/22 11:35:13;;;;;;;;;;;;;;;10.05;72.40;100955.88;5020043;28;21212;-79
2022/12/22 11:38:20;;;;;;;;;;;;;;;10.26;71.70;100957.81;5028307;28;19921;-77
2022/12/22 11:41:11;;;;;;;;;;;;;;;10.38;71.19;100953.78;5017454;28;19921;-80
2022/12/22 11:44:14;;;;;;;;;;;;;;;10.50;70.73;100945.88;5026571;28;20393;-77
2022/12/22 11:47:02;;;;;;;;;;;;;;;10.51;69.92;100945.56;5021658;28;19917;-78
2022/12/22 11:50:05;;;;;;;;;;;;;;;10.51;70.73;100947.50;5024822;28;19917;-78
2022/12/22 11:53:04;;;;;;;;;;;;;;;10.51;71.03;100934.69;5034937;28;19917;-79
2022/12/22 11:56:01;;;;;;;;;;;;;;;10.61;70.68;100920.84;5019731;28;19921;-76
2022/12/22 11:58:45;;;;;;;;;;;;;;;10.62;70.23;100906.13;5035407;28;19917;-77
2022/12/22 12:01:47;;;;;;;;;;;;;;;10.72;70.04;100892.25;5028963;28;19916;-77
2022/12/22 12:04:47;;;;;;;;;;;;;;;10.69;70.18;100901.06;5040975;28;20309;-77
2022/12/22 12:07:32;;;;;;;;;;;;;;;10.75;69.98;100898.22;5046610;28;19917;-77
2022/12/22 12:10:19;;;;;;;;;;;;;;;10.63;70.62;100891.41;5038373;28;20393;-78
2022/12/22 12:13:03;;;;;;;;;;;;;;;10.69;70.61;100881.22;5031783;28;19917;-78
2022/12/22 12:15:47;;;;;;;;;;;;;;;10.76;70.67;100887.03;5018321;28;19921;-78
2022/12/22 12:18:32;;;;;;;;;;;;;;;10.71;70.75;100876.28;5027311;28;19918;-77
2022/12/22 12:21:20;;;;;;;;;;;;;;;10.71;70.36;100873.56;5037716;28;19917;-77
2022/12/22 12:24:27;;;;;;;;;;;;;;;10.78;70.05;100883.97;5021396;28;19921;-78
2022/12/22 12:27:26;;;;;;;;;;;;;;;10.81;69.78;100867.03;5019634;28;19917;-77
2022/12/22 12:30:13;;;;;;;;;;;;;;;10.91;69.35;100864.03;5038409;28;19917;-78
2022/12/22 12:33:06;;;;;;;;;;;;;;;10.93;68.95;100859.88;5037075;28;19917;-78
2022/12/22 12:35:58;;;;;;;;;;;;;;;10.77;69.54;100842.38;5012353;28;19921;-77
2022/12/22 12:38:50;;;;;;;;;;;;;;;10.72;68.80;100840.59;5020783;28;19925;-79
2022/12/22 12:41:35;;;;;;;;;;;;;;;10.77;68.63;100826.03;5033308;28;19920;-77
2022/12/22 12:44:22;;;;;;;;;;;;;;;10.87;68.57;100836.66;5034660;28;19917;-79
2022/12/22 12:47:27;;;;;;;;;;;;;;;10.80;69.61;100841.75;5038451;28;19917;-77
2022/12/22 12:50:11;;;;;;;;;;;;;;;10.71;70.87;100830.03;5030668;28;19921;-77
2022/12/22 12:52:56;;;;;;;;;;;;;;;10.75;69.23;100839.16;5031497;28;19917;-77
2022/12/22 12:55:41;;;;;;;;;;;;;;;10.86;69.32;100845.94;5032601;28;20402;-79
2022/12/22 12:58:52;;;;;;;;;;;;;;;10.90;68.80;100846.13;5033620;28;19917;-78
2022/12/22 13:01:42;;;;;;;;;;;;;;;10.90;68.52;100835.22;5040311;28;19918;-78
2022/12/22 13:04:45;;;;;;;;;;;;;;;10.99;68.24;100838.78;5039628;28;19917;-79
2022/12/22 13:07:48;;;;;;;;;;;;;;;10.94;68.90;100836.19;5023999;28;19917;-78
2022/12/22 13:10:35;;;;;;;;;;;;;;;10.98;68.89;100826.28;5019820;28;19917;-77
2022/12/22 13:13:23;;;;;;;;;;;;;;;10.95;69.25;100830.47;5020600;28;19917;-79
2022/12/22 13:16:10;;;;;;;;;;;;;;;11.06;68.68;100839.94;5031162;28;19921;-77
2022/12/22 13:18:58;;;;;;;;;;;;;;;10.98;68.92;100832.53;5021880;28;19929;-77
2022/12/22 13:21:44;;;;;;;;;;;;;;;10.97;69.66;100833.66;5037064;28;19924;-77
2022/12/22 13:24:29;;;;;;;;;;;;;;;10.93;69.76;100840.84;5025365;28;19917;-78
2022/12/22 13:27:14;;;;;;;;;;;;;;;10.98;69.77;100831.72;5029293;28;19917;-78
2022/12/22 13:29:58;;;;;;;;;;;;;;;11.11;69.21;100834.34;5013362;28;19917;-79
2022/12/22 13:32:44;;;;;;;;;;;;;;;11.04;69.31;100830.47;5017959;28;19917;-77
2022/12/22 13:35:34;;;;;;;;;;;;;;;11.02;69.56;100833.50;5032676;28;19917;-78
2022/12/22 13:38:29;;;;;;;;;;;;;;;11.05;69.35;100830.16;5032867;28;20374;-78
2022/12/22 13:41:18;;;;;;;;;;;;;;;11.11;69.30;100826.19;5032190;28;20297;-78
2022/12/22 13:44:05;;;;;;;;;;;;;;;11.19;69.00;100826.50;5030418;28;19916;-78
2022/12/22 13:46:50;;;;;;;;;;;;;;;11.15;68.57;100819.00;5023558;28;19917;-77
2022/12/22 13:49:35;;;;;;;;;;;;;;;11.04;68.61;100817.69;5033942;28;20341;-77
2022/12/22 13:52:20;;;;;;;;;;;;;;;10.96;69.47;100818.47;5035465;28;19916;-78
2022/12/22 13:55:09;;;;;;;;;;;;;;;11.10;69.21;100813.69;5019813;28;19921;-78
2022/12/22 13:57:54;;;;;;;;;;;;;;;11.06;69.54;100811.94;5032426;28;19921;-77
2022/12/22 14:00:39;;;;;;;;;;;;;;;11.14;69.81;100808.41;5021341;28;20309;-78
2022/12/22 14:03:23;;;;;;;;;;;;;;;11.17;69.60;100812.44;5032500;28;19917;-78
2022/12/22 14:06:17;;;;;;;;;;;;;;;11.04;70.23;100819.59;5040879;28;19916;-78
2022/12/22 14:09:17;;;;;;;;;;;;;;;11.20;69.33;100804.44;5034564;28;19917;-80
2022/12/22 14:12:01;;;;;;;;;;;;;;;11.27;68.96;100801.25;5028715;28;19917;-80
2022/12/22 14:14:47;;;;;;;;;;;;;;;11.34;68.76;100807.00;5029989;28;19980;-80
2022/12/22 14:17:36;;;;;;;;;;;;;;;11.09;69.08;100811.28;5029229;28;19921;-80
2022/12/22 14:20:26;;;;;;;;;;;;;;;11.08;68.93;100807.75;5032899;28;19917;-79
2022/12/22 14:23:15;;;;;;;;;;;;;;;10.99;69.58;100823.25;5032734;28;19917;-80
2022/12/22 14:26:03;;;;;;;;;;;;;;;11.00;69.82;100819.44;5027208;28;19917;-80
2022/12/22 14:28:52;;;;;;;;;;;;;;;10.94;70.20;100809.00;5022818;28;19917;-80
2022/12/22 14:31:49;;;;;;;;;;;;;;;10.92;70.33;100817.47;5033621;28;19917;-80
2022/12/22 14:34:34;;;;;;;;;;;;;;;10.98;70.11;100824.38;5031017;28;19917;-79
2022/12/22 14:37:23;;;;;;;;;;;;;;;11.07;69.81;100821.69;5033430;28;19921;-80
2022/12/22 14:40:13;;;;;;;;;;;;;;;11.00;70.38;100810.47;5034182;28;19917;-78
2022/12/22 14:42:59;;;;;;;;;;;;;;;10.96;70.61;100815.75;5019434;28;19917;-79
2022/12/22 14:45:45;;;;;;;;;;;;;;;11.01;70.57;100814.78;5017433;28;19921;-79
2022/12/22 14:48:33;;;;;;;;;;;;;;;11.19;69.56;100815.63;5033619;28;19916;-78
2022/12/22 14:51:18;;;;;;;;;;;;;;;11.01;70.01;100821.03;5031034;28;19917;-79
2022/12/22 14:54:03;;;;;;;;;;;;;;;11.13;69.77;100834.03;5025661;28;19924;-78
2022/12/22 14:56:48;;;;;;;;;;;;;;;11.09;69.92;100828.41;5001668;28;19922;-79
2022/12/22 14:59:32;;;;;;;;;;;;;;;11.16;69.50;100836.13;5011993;28;19918;-79
2022/12/22 15:02:21;;;;;;;;;;;;;;;11.17;69.88;100835.00;5022936;28;19917;-78
2022/12/22 15:05:08;;;;;;;;;;;;;;;11.15;69.62;100826.34;5021392;28;19921;-78
2022/12/22 15:07:54;;;;;;;;;;;;;;;11.12;69.78;100835.94;5031319;28;19917;-78
2022/12/22 15:10:40;;;;;;;;;;;;;;;11.29;69.43;100829.75;5030337;28;19917;-77
2022/12/22 15:13:25;;;;;;;;;;;;;;;11.42;68.68;100838.91;5032394;28;20370;-78
2022/12/22 15:16:14;;;;;;;;;;;;;;;11.25;69.47;100847.03;5014536;28;19918;-78
2022/12/22 15:18:58;;;;;;;;;;;;;;;11.30;69.27;100844.97;5026377;28;19918;-79
2022/12/22 15:21:43;;;;;;;;;;;;;;;11.34;69.16;100845.94;5043631;28;20389;-79
2022/12/22 15:24:28;;;;;;;;;;;;;;;11.32;68.97;100833.78;5022964;28;20310;-78
2022/12/22 15:27:12;;;;;;;;;;;;;;;11.16;69.78;100833.41;5038838;28;19917;-79
2022/12/22 15:29:57;;;;;;;;;;;;;;;11.05;70.15;100837.53;5019449;28;19917;-79
2022/12/22 15:32:42;;;;;;;;;;;;;;;11.14;69.69;100835.63;5037146;28;19925;-78
2022/12/22 15:35:29;;;;;;;;;;;;;;;11.03;70.07;100824.22;5033223;28;19917;-80
2022/12/22 15:38:21;;;;;;;;;;;;;;;11.14;69.65;100830.19;5034720;28;19921;-79
2022/12/22 15:41:06;;;;;;;;;;;;;;;11.12;69.73;100819.59;5030259;28;20569;-79
2022/12/22 15:43:50;;;;;;;;;;;;;;;11.24;69.17;100818.19;5028424;28;20374;-81
2022/12/22 15:46:35;;;;;;;;;;;;;;;11.35;68.61;100808.63;5026452;28;20344;-80
2022/12/22 15:49:21;;;;;;;;;;;;;;;11.17;69.35;100809.72;5037812;28;19917;-81
2022/12/22 15:52:07;;;;;;;;;;;;;;;11.13;68.93;100813.06;5052008;28;19921;-81
2022/12/22 15:54:52;;;;;;;;;;;;;;;10.59;71.36;100803.41;5033235;28;19917;-79
2022/12/22 15:57:36;;;;;;;;;;;;;;;10.64;71.63;100800.56;5045112;28;19921;-79
2022/12/22 16:00:21;;;;;;;;;;;;;;;11.08;70.12;100796.06;5034743;28;20321;-80
2022/12/22 16:03:06;;;;;;;;;;;;;;;11.09;68.97;100784.88;5025453;28;19921;-80
2022/12/22 16:05:51;;;;;;;;;;;;;;;11.12;69.59;100795.13;5034699;28;19917;-81
2022/12/22 16:08:40;;;;;;;;;;;;;;;11.26;68.43;100786.03;5034526;28;19921;-80
2022/12/22 16:11:25;;;;;;;;;;;;;;;11.38;67.33;100789.72;5029152;28;19917;-81
2022/12/22 16:14:11;;;;;;;;;;;;;;;11.31;67.32;100785.88;5022567;28;19917;-80
2022/12/22 16:16:56;;;;;;;;;;;;;;;11.36;67.17;100789.25;5024963;28;19925;-80
2022/12/22 16:19:40;;;;;;;;;;;;;;;11.36;67.47;100793.91;5035072;28;19922;-79
2022/12/22 16:22:30;;;;;;;;;;;;;;;11.39;67.45;100799.50;5016032;28;19917;-80
2022/12/22 16:25:17;;;;;;;;;;;;;;;11.44;67.25;100796.63;5039355;28;19917;-79
2022/12/22 16:28:02;;;;;;;;;;;;;;;11.26;67.77;100802.38;5033139;28;19918;-79
2022/12/22 16:30:49;;;;;;;;;;;;;;;11.32;67.36;100798.38;5010686;28;20622;-80
2022/12/22 16:33:36;;;;;;;;;;;;;;;11.34;67.09;100796.13;5026197;28;19917;-79
2022/12/22 16:36:20;;;;;;;;;;;;;;;11.28;67.31;100787.31;5037677;28;19917;-81
2022/12/22 16:39:05;;;;;;;;;;;;;;;11.34;66.81;100801.56;5025943;28;19917;-80
2022/12/22 16:41:50;;;;;;;;;;;;;;;11.33;66.66;100794.50;5025820;28;19917;-80
2022/12/22 16:44:34;;;;;;;;;;;;;;;11.29;67.07;100791.63;5022562;28;19917;-80
2022/12/22 16:47:21;;;;;;;;;;;;;;;11.50;66.28;100805.44;5031378;28;19925;-79
2022/12/22 16:50:15;;;;;;;;;;;;;;;11.44;66.44;100798.53;5022823;28;19925;-80
2022/12/22 16:53:00;;;;;;;;;;;;;;;11.34;66.84;100798.84;5024837;28;19921;-81
2022/12/22 16:55:44;;;;;;;;;;;;;;;11.43;66.34;100794.19;5031646;28;20302;-81
2022/12/22 16:58:29;;;;;;;;;;;;;;;11.45;66.34;100789.25;5035845;28;20410;-81
2022/12/22 17:01:19;;;;;;;;;;;;;;;11.37;66.29;100790.06;5017355;28;19917;-81
2022/12/22 17:04:06;;;;;;;;;;;;;;;11.31;66.58;100781.25;5000986;28;19918;-81
2022/12/22 17:06:52;;;;;;;;;;;;;;;11.36;66.45;100785.72;5015850;28;19921;-80
2022/12/22 17:09:45;;;;;;;;;;;;;;;11.16;66.88;100798.03;5003782;28;19917;-80
2022/12/22 17:12:32;;;;;;;;;;;;;;;11.11;67.04;100795.44;5016375;28;19917;-81
2022/12/22 17:15:18;;;;;;;;;;;;;;;11.23;66.79;100792.09;5034824;28;19921;-79
2022/12/22 17:18:02;;;;;;;;;;;;;;;10.99;67.27;100787.88;5031340;28;19921;-81
2022/12/22 17:20:50;;;;;;;;;;;;;;;10.96;67.67;100795.88;5047121;28;19917;-79
2022/12/22 17:23:39;;;;;;;;;;;;;;;11.00;67.30;100792.22;5025667;28;20521;-80
2022/12/22 17:26:24;;;;;;;;;;;;;;;11.15;66.55;100790.97;5025926;28;20298;-81
2022/12/22 17:29:13;;;;;;;;;;;;;;;11.33;66.25;100803.47;5040295;28;19917;-82
2022/12/22 17:31:57;;;;;;;;;;;;;;;11.33;65.93;100800.75;5043268;28;19917;-80
2022/12/22 17:34:42;;;;;;;;;;;;;;;11.39;66.03;100806.84;5033842;28;19917;-80
2022/12/22 17:37:26;;;;;;;;;;;;;;;11.37;66.24;100818.09;5016475;28;20389;-81
2022/12/22 17:40:21;;;;;;;;;;;;;;;11.38;65.96;100818.88;5032560;28;19921;-79
2022/12/22 17:43:09;;;;;;;;;;;;;;;11.29;66.72;100823.50;5040793;28;19917;-81
2022/12/22 17:45:54;;;;;;;;;;;;;;;11.67;65.12;100826.44;5029859;28;19921;-81
2022/12/22 17:48:39;;;;;;;;;;;;;;;11.66;65.14;100825.66;5030584;28;19917;-80
2022/12/22 17:51:26;;;;;;;;;;;;;;;11.44;65.89;100831.22;5014451;28;19917;-81
2022/12/22 17:54:19;;;;;;;;;;;;;;;11.45;66.34;100830.09;5014144;28;19917;-80
2022/12/22 17:57:09;;;;;;;;;;;;;;;11.62;65.49;100824.69;5004901;28;19921;-81
2022/12/22 17:59:53;;;;;;;;;;;;;;;11.60;65.53;100824.19;5021335;28;19917;-80
2022/12/22 18:02:38;;;;;;;;;;;;;;;11.30;66.82;100817.75;5024260;28;20397;-80
2022/12/22 18:05:27;;;;;;;;;;;;;;;11.31;67.12;100830.25;5036623;28;19917;-78